Time;durP1;ratioP1;P1;durP2;ratioP2;P2;SDS_P1;SDS_P2;PMS_P1;PMS_P2;Temp;Humidity;BMP_temperature;BMP_pressure;BME280_temperature;BME280_humidity;BME280_pressure;Samples;Min_cycle;Max_cycle;Signal;HPM_P1;HPM_P2
2022/02/04 00:05:25;;;;;;;189.37;178.97;;;7.90;99.90;;;;;;4399278;32;20167;-64
2022/02/04 00:22:06;;;;;;;198.07;187.50;;;8.00;99.90;;;;;;4360168;32;20221;-64
2022/02/04 00:24:33;;;;;;;194.47;183.67;;;8.00;99.90;;;;;;4360408;32;20152;-63
2022/02/04 00:27:06;;;;;;;223.30;211.53;;;8.00;99.90;;;;;;4363515;32;20185;-63
2022/02/04 00:29:41;;;;;;;205.23;194.43;;;8.00;99.90;;;;;;4359614;33;20165;-63
2022/02/04 00:32:10;;;;;;;196.60;186.00;;;8.00;99.90;;;;;;4357538;32;20651;-63
2022/02/04 00:34:44;;;;;;;204.97;194.20;;;8.00;99.90;;;;;;4356492;32;20152;-63
2022/02/04 00:37:23;;;;;;;208.30;197.33;;;8.00;99.90;;;;;;4359451;32;20157;-66
2022/02/04 00:39:55;;;;;;;203.87;193.40;;;8.00;99.90;;;;;;4359470;32;20135;-63
2022/02/04 00:42:22;;;;;;;196.23;184.83;;;8.00;99.90;;;;;;4359530;32;20294;-64
2022/02/04 00:44:57;;;;;;;205.73;195.10;;;8.00;99.90;;;;;;4354691;32;20158;-65
2022/02/04 00:47:27;;;;;;;196.83;186.50;;;8.00;99.90;;;;;;4371462;32;20204;-66
2022/02/04 00:50:02;;;;;;;196.33;185.97;;;8.00;99.90;;;;;;4414341;32;20462;-65
2022/02/04 00:52:38;;;;;;;183.23;173.47;;;8.00;99.90;;;;;;4407021;32;20178;-62
2022/02/04 00:55:20;;;;;;;189.93;180.03;;;8.00;99.90;;;;;;4402289;32;20144;-63
2022/02/04 00:57:54;;;;;;;185.40;175.40;;;8.00;99.90;;;;;;4395936;32;20186;-62
2022/02/04 01:28:02;;;;;;;191.87;181.67;;;7.80;99.90;;;;;;4358657;32;20207;-62
2022/02/04 01:30:33;;;;;;;202.57;192.20;;;7.90;99.90;;;;;;4365635;32;20225;-63
2022/02/04 01:33:00;;;;;;;181.93;172.07;;;7.90;99.90;;;;;;4376999;32;20152;-62
2022/02/04 01:35:27;;;;;;;186.47;176.63;;;7.90;99.90;;;;;;4388487;32;20207;-64
2022/02/04 01:37:55;;;;;;;186.47;176.70;;;7.80;99.90;;;;;;4383098;32;20162;-67
2022/02/04 01:40:22;;;;;;;211.43;200.80;;;7.90;99.90;;;;;;4388967;32;20570;-63
2022/02/04 01:42:50;;;;;;;194.43;184.70;;;7.90;99.90;;;;;;4417535;32;20574;-63
2022/02/04 01:45:17;;;;;;;195.60;185.90;;;7.90;99.90;;;;;;4421107;32;20161;-63
2022/02/04 01:47:55;;;;;;;212.60;202.10;;;7.90;99.90;;;;;;4420728;32;20131;-63
2022/02/04 01:50:23;;;;;;;178.40;169.10;;;7.90;99.90;;;;;;4409352;32;20175;-63
2022/02/04 01:52:51;;;;;;;200.80;190.60;;;7.90;99.90;;;;;;4419661;32;20159;-63
2022/02/04 01:55:19;;;;;;;186.10;176.43;;;7.90;99.90;;;;;;4420867;32;20131;-62
2022/02/04 01:57:46;;;;;;;193.47;183.10;;;7.90;99.90;;;;;;4420857;32;20141;-65
2022/02/04 02:00:14;;;;;;;197.80;187.97;;;7.90;99.90;;;;;;4409334;32;20227;-63
2022/02/04 02:02:40;;;;;;;203.80;193.93;;;7.90;99.90;;;;;;4403958;32;20460;-64
2022/02/04 02:05:08;;;;;;;176.50;167.07;;;7.90;99.90;;;;;;4404511;32;20139;-62
2022/02/04 02:07:41;;;;;;;190.10;180.50;;;7.90;99.90;;;;;;4406028;32;20150;-64
2022/02/04 02:10:11;;;;;;;188.23;179.13;;;8.00;99.90;;;;;;4406308;32;20213;-62
2022/02/04 02:12:48;;;;;;;202.30;192.43;;;8.00;99.90;;;;;;4405624;32;20158;-63
2022/02/04 02:15:22;;;;;;;197.87;188.27;;;8.00;99.90;;;;;;4407265;32;20136;-64
2022/02/04 02:34:52;;;;;;;181.00;172.07;;;7.90;99.90;;;;;;4376239;32;20202;-63
2022/02/04 02:38:15;;;;;;;188.70;179.70;;;7.90;99.90;;;;;;4370729;32;20177;-63
2022/02/04 02:43:16;;;;;;;181.77;173.13;;;7.90;99.90;;;;;;4374538;32;20195;-62
2022/02/04 02:45:59;;;;;;;186.93;178.27;;;7.90;99.90;;;;;;4372645;32;20149;-62
2022/02/04 02:48:42;;;;;;;171.10;162.77;;;7.90;99.90;;;;;;4361192;32;20149;-62
2022/02/04 02:51:46;;;;;;;180.57;172.03;;;7.90;99.90;;;;;;4361128;33;20283;-62
2022/02/04 02:54:36;;;;;;;179.47;170.87;;;7.90;99.90;;;;;;4389028;32;20166;-62
2022/02/04 02:59:55;;;;;;;177.83;169.33;;;7.90;99.90;;;;;;4361283;32;20164;-62
2022/02/04 03:02:21;;;;;;;179.90;171.47;;;8.00;99.90;;;;;;4361707;32;20223;-63
2022/02/04 03:04:48;;;;;;;186.43;177.57;;;8.00;99.90;;;;;;4379011;32;20190;-63
2022/02/04 03:07:15;;;;;;;185.20;176.37;;;8.00;99.90;;;;;;4397584;32;20146;-63
2022/02/04 03:09:42;;;;;;;189.73;180.77;;;8.00;99.90;;;;;;4408999;32;20201;-63
2022/02/04 03:12:11;;;;;;;190.57;181.47;;;8.00;99.90;;;;;;4408168;32;20148;-63
2022/02/04 03:14:38;;;;;;;173.93;165.70;;;8.00;99.90;;;;;;4408047;32;20140;-64
2022/02/04 03:17:08;;;;;;;181.83;173.47;;;8.00;99.90;;;;;;4408095;32;20155;-63
2022/02/04 03:19:35;;;;;;;205.57;196.03;;;8.00;99.90;;;;;;4407760;32;20151;-64
2022/02/04 03:22:07;;;;;;;204.67;194.70;;;8.00;99.90;;;;;;4407954;32;20189;-64
2022/02/04 03:24:34;;;;;;;170.60;162.60;;;8.00;99.90;;;;;;4415484;32;20203;-63
2022/02/04 03:27:06;;;;;;;192.40;183.70;;;8.00;99.90;;;;;;4409623;32;20199;-63
2022/02/04 03:29:47;;;;;;;185.77;177.23;;;8.00;99.90;;;;;;4392757;32;20455;-63
2022/02/04 03:32:20;;;;;;;190.00;180.97;;;8.00;99.90;;;;;;4392711;32;20159;-63
2022/02/04 03:34:46;;;;;;;185.87;177.10;;;8.00;99.90;;;;;;4398703;32;20211;-63
2022/02/04 03:37:13;;;;;;;192.30;183.53;;;8.00;99.90;;;;;;4421832;32;20243;-63
2022/02/04 03:39:40;;;;;;;208.23;198.77;;;8.00;99.90;;;;;;4408336;32;20140;-64
2022/02/04 03:42:10;;;;;;;193.67;184.67;;;8.00;99.90;;;;;;4407731;32;20159;-63
2022/02/04 03:44:38;;;;;;;187.43;178.90;;;8.00;99.90;;;;;;4407799;32;20132;-63
2022/02/04 03:47:05;;;;;;;189.97;181.37;;;8.00;99.90;;;;;;4410090;32;20635;-64
2022/02/04 03:49:32;;;;;;;208.40;199.17;;;8.00;99.90;;;;;;4406538;32;20159;-63
2022/02/04 03:51:59;;;;;;;197.87;188.47;;;8.10;99.90;;;;;;4407076;32;20223;-63
2022/02/04 03:54:26;;;;;;;180.60;172.20;;;7.90;99.90;;;;;;4408370;32;20225;-63
2022/02/04 03:56:53;;;;;;;206.37;196.80;;;7.70;99.90;;;;;;4409043;32;20605;-63
2022/02/04 03:59:22;;;;;;;180.67;171.93;;;7.70;99.90;;;;;;4395844;32;20154;-63
2022/02/04 04:01:50;;;;;;;189.20;180.10;;;7.70;99.90;;;;;;4392255;32;20136;-63
2022/02/04 04:04:17;;;;;;;195.83;187.03;;;7.80;99.90;;;;;;4414738;32;20163;-63
2022/02/04 04:06:43;;;;;;;182.67;174.23;;;7.80;99.90;;;;;;4422581;32;20152;-63
2022/02/04 04:09:11;;;;;;;188.77;180.00;;;7.90;99.90;;;;;;4402349;32;20591;-63
2022/02/04 04:11:42;;;;;;;188.07;179.63;;;7.90;99.90;;;;;;4392189;32;20209;-63
2022/02/04 04:14:08;;;;;;;186.63;178.23;;;7.90;99.90;;;;;;4400319;32;20229;-63
2022/02/04 04:16:35;;;;;;;184.53;175.97;;;7.90;99.90;;;;;;4407785;32;20137;-63
2022/02/04 04:19:06;;;;;;;199.43;190.60;;;7.90;99.90;;;;;;4406838;32;20166;-63
2022/02/04 04:21:33;;;;;;;186.00;177.77;;;8.00;99.90;;;;;;4408409;32;20147;-63
2022/02/04 04:24:01;;;;;;;190.23;181.67;;;8.00;99.90;;;;;;4401937;32;20207;-64
2022/02/04 04:26:29;;;;;;;181.87;173.73;;;8.00;99.90;;;;;;4396403;32;20163;-63
2022/02/04 04:29:01;;;;;;;178.53;170.43;;;8.00;99.90;;;;;;4388976;32;20193;-61
2022/02/04 04:31:28;;;;;;;158.60;151.33;;;7.90;99.90;;;;;;4396712;32;20233;-62
2022/02/04 04:33:55;;;;;;;180.10;172.10;;;7.90;99.90;;;;;;4387783;32;20583;-62
2022/02/04 04:36:24;;;;;;;185.00;176.63;;;7.90;99.90;;;;;;4393036;32;20217;-62
2022/02/04 04:38:57;;;;;;;166.63;158.83;;;7.90;99.90;;;;;;4396059;32;20154;-62
2022/02/04 04:41:32;;;;;;;176.90;168.93;;;7.90;99.90;;;;;;4392200;32;20497;-62
2022/02/04 05:28:14;;;;;;;181.33;173.30;;;8.00;99.90;;;;;;4361087;32;20222;-63
2022/02/04 05:30:41;;;;;;;198.00;189.00;;;8.00;99.90;;;;;;4373618;32;20189;-62
2022/02/04 05:33:08;;;;;;;191.20;182.93;;;8.00;99.90;;;;;;4373544;32;20146;-64
2022/02/04 05:35:36;;;;;;;187.37;179.27;;;8.10;99.90;;;;;;4374017;32;20219;-62
2022/02/04 05:38:04;;;;;;;195.17;186.83;;;8.00;99.90;;;;;;4388537;32;20148;-66
2022/02/04 05:40:39;;;;;;;205.13;196.53;;;8.10;99.90;;;;;;4378016;32;20153;-63
2022/02/04 05:43:15;;;;;;;214.97;206.00;;;8.10;99.90;;;;;;4373608;32;20160;-65
2022/02/04 05:45:50;;;;;;;196.27;187.87;;;8.10;99.90;;;;;;4373677;32;20143;-65
2022/02/04 05:48:17;;;;;;;181.70;173.83;;;8.00;99.90;;;;;;4374111;32;20180;-63
2022/02/04 05:50:53;;;;;;;178.97;171.20;;;8.00;99.90;;;;;;4372707;32;20184;-63
2022/02/04 05:53:25;;;;;;;189.47;181.47;;;7.90;99.90;;;;;;4359542;32;20160;-62
2022/02/04 05:56:01;;;;;;;191.37;183.00;;;8.00;99.90;;;;;;4378725;32;20148;-64
2022/02/04 05:58:39;;;;;;;190.97;183.10;;;8.00;99.90;;;;;;4390624;32;20540;-63
2022/02/04 06:01:26;;;;;;;191.77;183.57;;;8.00;99.90;;;;;;4394510;32;20156;-65
2022/02/04 06:04:03;;;;;;;176.87;169.27;;;8.00;99.90;;;;;;4410518;32;20145;-66
2022/02/04 06:09:38;;;;;;;186.90;178.73;;;8.00;99.90;;;;;;4418603;32;20525;-62
2022/02/04 06:12:30;;;;;;;167.87;160.20;;;8.10;99.90;;;;;;4404249;32;20148;-65
2022/02/04 06:15:10;;;;;;;161.47;154.63;;;8.00;99.90;;;;;;4399463;32;20149;-63
2022/02/04 06:23:21;;;;;;;183.97;176.07;;;8.10;99.90;;;;;;4379134;32;22498;-64
2022/02/04 06:25:48;;;;;;;177.07;169.23;;;8.10;99.90;;;;;;4378551;32;20223;-63
2022/02/04 06:28:17;;;;;;;204.30;195.27;;;8.00;99.90;;;;;;4377134;32;20205;-65
2022/02/04 06:30:46;;;;;;;182.33;174.60;;;8.10;99.90;;;;;;4373832;32;20742;-63
2022/02/04 06:33:13;;;;;;;182.00;174.17;;;8.00;99.90;;;;;;4375171;32;20310;-62
2022/02/04 06:35:42;;;;;;;180.30;172.60;;;8.10;99.90;;;;;;4379407;32;20167;-65
2022/02/04 06:38:09;;;;;;;187.53;179.60;;;8.00;99.90;;;;;;4375281;32;20224;-65
2022/02/04 06:40:36;;;;;;;178.43;170.87;;;8.00;99.90;;;;;;4373149;32;20535;-62
2022/02/04 06:43:03;;;;;;;184.13;176.47;;;8.00;99.90;;;;;;4374905;32;20169;-64
2022/02/04 06:45:31;;;;;;;181.83;174.13;;;8.00;99.90;;;;;;4378219;32;20573;-63
2022/02/04 06:47:58;;;;;;;194.27;185.83;;;8.00;99.90;;;;;;4374887;32;20616;-66
2022/02/04 06:50:25;;;;;;;170.20;162.87;;;8.10;99.90;;;;;;4373602;32;20187;-63
2022/02/04 06:52:53;;;;;;;168.60;161.30;;;8.10;99.90;;;;;;4380922;32;20153;-63
2022/02/04 06:55:20;;;;;;;159.20;151.90;;;8.00;99.90;;;;;;4400377;32;20269;-62
2022/02/04 06:57:49;;;;;;;176.50;169.07;;;8.10;99.90;;;;;;4407940;32;20451;-63
2022/02/04 07:00:18;;;;;;;158.07;151.03;;;8.10;99.90;;;;;;4412390;32;20146;-64
2022/02/04 07:02:47;;;;;;;185.47;177.43;;;8.10;99.90;;;;;;4412696;32;20190;-63
2022/02/04 07:05:15;;;;;;;169.37;161.90;;;8.20;99.90;;;;;;4411518;32;20175;-64
2022/02/04 07:07:48;;;;;;;173.03;165.73;;;8.20;99.90;;;;;;4412221;32;20137;-65
2022/02/04 07:10:21;;;;;;;167.50;160.23;;;8.20;99.90;;;;;;4411519;32;20175;-66
2022/02/04 07:12:54;;;;;;;175.73;168.13;;;8.20;99.90;;;;;;4403397;32;20145;-63
2022/02/04 07:15:45;;;;;;;166.93;159.37;;;8.20;99.90;;;;;;4402252;32;20647;-65
2022/02/04 07:20:57;;;;;;;176.10;168.63;;;8.20;99.90;;;;;;4404529;32;20532;-64
2022/02/04 07:23:24;;;;;;;165.97;158.70;;;8.30;99.90;;;;;;4398363;32;20230;-65
2022/02/04 07:25:51;;;;;;;166.67;159.37;;;8.30;99.90;;;;;;4400404;32;20210;-65
2022/02/04 07:28:18;;;;;;;171.37;163.83;;;8.30;99.90;;;;;;4406340;32;20148;-65
2022/02/04 07:30:47;;;;;;;170.90;163.47;;;8.30;99.90;;;;;;4403843;32;20208;-66
2022/02/04 07:33:19;;;;;;;182.90;175.10;;;8.30;99.90;;;;;;4400893;32;20753;-66
2022/02/04 07:38:52;;;;;;;159.17;151.73;;;8.30;99.90;;;;;;4408371;32;20151;-66
2022/02/04 07:41:20;;;;;;;168.33;160.70;;;8.40;99.90;;;;;;4407632;32;20193;-64
2022/02/04 07:43:47;;;;;;;173.67;166.03;;;8.40;99.90;;;;;;4403062;32;20134;-65
2022/02/04 07:46:19;;;;;;;178.80;170.70;;;8.40;99.90;;;;;;4392439;32;20510;-64
2022/02/04 07:48:48;;;;;;;171.70;163.93;;;8.40;99.90;;;;;;4392586;32;20132;-65
2022/02/04 07:51:15;;;;;;;176.20;168.23;;;8.50;99.90;;;;;;4392390;32;20174;-64
2022/02/04 07:53:41;;;;;;;188.63;180.03;;;8.50;99.90;;;;;;4393611;32;20177;-67
2022/02/04 07:56:08;;;;;;;168.00;160.47;;;8.40;99.90;;;;;;4407657;32;20204;-64
2022/02/04 07:58:35;;;;;;;164.07;156.63;;;8.50;99.90;;;;;;4409087;32;20247;-67
2022/02/04 08:01:03;;;;;;;187.33;179.00;;;8.50;99.90;;;;;;4407949;32;20213;-66
2022/02/04 08:03:39;;;;;;;167.97;160.37;;;8.50;99.90;;;;;;4407015;32;20222;-62
2022/02/04 08:06:11;;;;;;;161.33;154.10;;;8.50;99.90;;;;;;4406853;32;20191;-64
2022/02/04 08:08:46;;;;;;;163.93;156.57;;;8.50;99.90;;;;;;4407169;32;20131;-64
2022/02/04 08:11:21;;;;;;;175.13;167.17;;;8.50;99.90;;;;;;4407346;32;20132;-66
2022/02/04 08:14:09;;;;;;;166.13;158.60;;;8.50;99.90;;;;;;4405620;32;20137;-66
2022/02/04 08:19:43;;;;;;;180.03;171.77;;;8.50;99.90;;;;;;4391809;32;20148;-66
2022/02/04 08:25:17;;;;;;;168.33;160.63;;;8.60;99.90;;;;;;4377054;32;20180;-64
2022/02/04 08:36:24;;;;;;;165.87;158.17;;;8.60;99.90;;;;;;4361385;32;20603;-64
2022/02/04 08:39:11;;;;;;;164.50;156.90;;;8.60;99.90;;;;;;4360288;32;20569;-64
2022/02/04 08:47:31;;;;;;;155.87;148.50;;;8.70;99.90;;;;;;4330345;33;20210;-63
2022/02/04 08:53:18;;;;;;;169.10;161.40;;;8.80;99.90;;;;;;4325605;33;20256;-63
2022/02/04 08:55:52;;;;;;;172.83;164.93;;;8.80;99.90;;;;;;4304782;33;20212;-64
2022/02/04 08:58:28;;;;;;;178.40;170.30;;;8.90;99.90;;;;;;4315127;33;20156;-67
2022/02/04 09:01:10;;;;;;;172.90;165.00;;;9.00;99.90;;;;;;4318865;33;20192;-66
2022/02/04 09:03:50;;;;;;;174.47;166.70;;;9.00;99.90;;;;;;4331286;33;20229;-64
2022/02/04 09:06:22;;;;;;;171.00;163.37;;;9.00;99.90;;;;;;4329395;33;20335;-64
2022/02/04 09:08:52;;;;;;;183.33;175.20;;;9.10;99.90;;;;;;4361628;32;20695;-66
2022/02/04 09:11:39;;;;;;;208.70;199.90;;;9.20;99.90;;;;;;4362166;32;20194;-66
2022/02/04 09:17:14;;;;;;;167.27;159.93;;;9.30;99.90;;;;;;4357341;32;20205;-62
2022/02/04 09:19:59;;;;;;;158.47;151.33;;;9.40;99.90;;;;;;4361272;32;20167;-63
2022/02/04 09:22:49;;;;;;;161.07;154.07;;;9.40;99.90;;;;;;4384019;32;21575;-61
2022/02/04 09:25:19;;;;;;;164.23;156.97;;;9.40;99.90;;;;;;4391391;32;20230;-65
2022/02/04 09:27:47;;;;;;;163.23;155.97;;;9.40;99.90;;;;;;4397415;32;20244;-66
2022/02/04 09:30:17;;;;;;;165.77;158.43;;;9.30;99.90;;;;;;4392692;32;20151;-64
2022/02/04 09:32:44;;;;;;;169.43;162.23;;;9.30;99.90;;;;;;4391337;32;20157;-63
2022/02/04 09:35:14;;;;;;;170.63;163.27;;;9.50;99.90;;;;;;4390954;32;20143;-63
2022/02/04 09:37:42;;;;;;;158.20;151.33;;;9.50;99.90;;;;;;4391880;32;20138;-65
2022/02/04 09:40:11;;;;;;;167.50;160.33;;;9.40;99.90;;;;;;4392192;32;20512;-62
2022/02/04 09:42:38;;;;;;;167.80;160.53;;;9.50;99.90;;;;;;4390833;32;20159;-62
2022/02/04 09:45:08;;;;;;;183.43;175.73;;;9.50;99.90;;;;;;4391374;32;20176;-65
2022/02/04 09:47:36;;;;;;;178.80;171.13;;;9.60;99.90;;;;;;4399109;32;20163;-63
2022/02/04 09:50:04;;;;;;;175.03;167.67;;;9.70;99.90;;;;;;4406370;32;20522;-63
2022/02/04 10:07:24;;;;;;;145.70;139.47;;;9.70;99.90;;;;;;4360468;32;20164;-63
2022/02/04 10:10:13;;;;;;;145.00;138.83;;;9.70;99.90;;;;;;4358691;33;20142;-64
2022/02/04 10:15:36;;;;;;;149.17;142.73;;;9.70;99.90;;;;;;4359424;32;20158;-63
2022/02/04 10:18:08;;;;;;;163.03;156.27;;;10.00;99.90;;;;;;4366035;32;20148;-65
2022/02/04 10:20:38;;;;;;;165.40;158.60;;;10.00;99.90;;;;;;4373784;32;20540;-66
2022/02/04 10:23:05;;;;;;;152.23;145.77;;;10.00;99.90;;;;;;4373132;32;20166;-65
2022/02/04 10:25:33;;;;;;;180.67;173.17;;;10.20;99.90;;;;;;4373351;32;20179;-66
2022/02/04 10:28:03;;;;;;;183.33;175.90;;;10.30;99.90;;;;;;4370628;32;20155;-64
2022/02/04 10:30:32;;;;;;;171.67;164.60;;;10.20;99.90;;;;;;4373208;32;20166;-61
2022/02/04 10:33:01;;;;;;;174.00;166.73;;;10.30;99.90;;;;;;4374940;32;20144;-63
2022/02/04 10:35:34;;;;;;;157.70;151.07;;;10.40;99.90;;;;;;4390424;32;20629;-61
2022/02/04 10:38:11;;;;;;;166.50;159.60;;;10.50;99.90;;;;;;4390741;32;20136;-67
2022/02/04 10:40:51;;;;;;;175.63;168.17;;;10.50;99.90;;;;;;4390485;32;20163;-64
2022/02/04 10:43:39;;;;;;;161.07;154.43;;;10.40;99.90;;;;;;4390117;32;20487;-65
2022/02/04 10:46:18;;;;;;;170.53;163.43;;;10.50;99.90;;;;;;4390602;32;20140;-66
2022/02/04 10:48:59;;;;;;;173.13;166.03;;;10.60;99.90;;;;;;4391494;32;20144;-65
2022/02/04 10:51:59;;;;;;;169.17;162.17;;;10.80;99.90;;;;;;4390207;32;20192;-65
2022/02/04 11:00:27;;;;;;;169.37;162.27;;;10.80;99.90;;;;;;4358068;32;20162;-64
2022/02/04 11:03:07;;;;;;;150.17;143.87;;;10.70;99.90;;;;;;4361401;32;20528;-66
2022/02/04 11:05:50;;;;;;;172.20;164.97;;;10.60;99.90;;;;;;4361355;32;20549;-66
2022/02/04 11:08:45;;;;;;;178.07;170.83;;;10.80;99.90;;;;;;4361343;32;20187;-64
2022/02/04 11:33:56;;;;;;;157.67;151.13;;;10.00;99.90;;;;;;4378330;32;20673;-66
2022/02/04 11:51:43;;;;;;;145.47;139.13;;;9.90;99.90;;;;;;4333008;33;20149;-64
2022/02/04 11:54:31;;;;;;;154.90;148.57;;;9.90;99.90;;;;;;4330680;33;20492;-64
2022/02/04 11:57:21;;;;;;;163.03;156.20;;;9.80;99.90;;;;;;4337460;33;20176;-64
2022/02/04 11:59:56;;;;;;;159.37;152.83;;;9.80;99.90;;;;;;4343547;33;20302;-62
2022/02/04 12:02:35;;;;;;;155.93;149.47;;;9.80;99.90;;;;;;4345483;33;20280;-65
2022/02/04 12:05:26;;;;;;;163.50;156.80;;;9.90;99.90;;;;;;4345273;33;20223;-61
2022/02/04 12:07:57;;;;;;;163.40;156.57;;;10.00;99.90;;;;;;4345471;33;20149;-63
2022/02/04 12:10:26;;;;;;;159.00;152.30;;;9.90;99.90;;;;;;4338466;33;20162;-63
2022/02/04 12:13:00;;;;;;;164.53;157.77;;;9.80;99.90;;;;;;4330208;33;20146;-63
2022/02/04 12:15:36;;;;;;;180.23;172.87;;;9.70;99.90;;;;;;4330407;33;20161;-65
2022/02/04 12:18:05;;;;;;;163.97;157.33;;;9.70;99.90;;;;;;4330365;33;20140;-63
2022/02/04 12:20:58;;;;;;;186.60;178.70;;;9.70;99.90;;;;;;4335033;33;20272;-61
2022/02/04 12:23:46;;;;;;;171.10;164.17;;;9.80;99.90;;;;;;4345447;33;20149;-63
2022/02/04 12:26:29;;;;;;;164.03;157.10;;;9.70;99.90;;;;;;4345071;33;20138;-65
2022/02/04 12:28:58;;;;;;;162.07;155.20;;;9.70;99.90;;;;;;4372824;32;20144;-63
2022/02/04 12:31:30;;;;;;;174.63;167.50;;;9.60;99.90;;;;;;4394504;32;20298;-63
2022/02/04 12:33:58;;;;;;;167.67;160.40;;;9.50;99.90;;;;;;4391797;32;20143;-62
2022/02/04 12:36:27;;;;;;;166.40;159.27;;;9.50;99.90;;;;;;4391695;32;20155;-65
2022/02/04 12:38:57;;;;;;;180.57;173.03;;;9.40;99.90;;;;;;4391868;32;20158;-63
2022/02/04 12:41:27;;;;;;;162.77;156.13;;;9.30;99.90;;;;;;4398685;32;20166;-64
2022/02/04 12:43:56;;;;;;;148.87;142.40;;;9.20;99.90;;;;;;4406777;32;20142;-66
2022/02/04 12:46:23;;;;;;;151.77;145.27;;;9.20;99.90;;;;;;4406870;32;20133;-64
2022/02/04 12:49:03;;;;;;;140.57;134.40;;;9.00;99.90;;;;;;4406910;32;20223;-63
2022/02/04 12:51:34;;;;;;;134.00;128.37;;;8.80;99.90;;;;;;4404264;32;20162;-67
2022/02/04 12:54:00;;;;;;;137.93;132.10;;;8.60;99.90;;;;;;4406870;32;20154;-66
2022/02/04 12:56:37;;;;;;;139.70;133.67;;;8.50;99.90;;;;;;4406686;32;20136;-62
2022/02/04 12:59:52;;;;;;;122.37;116.97;;;8.40;99.90;;;;;;4405541;32;20567;-66
2022/02/04 13:08:14;;;;;;;107.23;102.17;;;8.20;99.90;;;;;;4358395;32;20512;-63
2022/02/04 13:10:42;;;;;;;99.63;95.23;;;8.20;99.90;;;;;;4356544;33;20147;-62
2022/02/04 13:13:11;;;;;;;102.50;97.90;;;8.20;99.90;;;;;;4357903;33;20603;-62
2022/02/04 13:15:40;;;;;;;94.00;89.80;;;8.10;99.90;;;;;;4356522;33;20146;-62
2022/02/04 13:18:08;;;;;;;91.13;86.67;;;8.10;99.90;;;;;;4359434;32;20486;-63
2022/02/04 13:20:37;;;;;;;95.60;91.13;;;8.00;99.90;;;;;;4363116;32;20248;-61
2022/02/04 13:23:09;;;;;;;104.60;99.67;;;8.00;99.90;;;;;;4372009;32;20687;-64
2022/02/04 13:25:37;;;;;;;114.17;109.07;;;7.90;99.90;;;;;;4369329;32;20188;-63
2022/02/04 13:28:13;;;;;;;105.43;100.60;;;8.00;99.90;;;;;;4373023;32;20188;-62
2022/02/04 13:30:55;;;;;;;99.83;94.90;;;7.90;99.90;;;;;;4373905;32;20155;-62
2022/02/04 13:33:23;;;;;;;94.07;89.67;;;8.00;99.90;;;;;;4370533;32;20235;-62
2022/02/04 13:36:04;;;;;;;104.87;99.87;;;7.90;99.90;;;;;;4379864;32;20167;-62
2022/02/04 13:38:44;;;;;;;95.90;91.57;;;7.90;99.90;;;;;;4400251;32;20193;-63
2022/02/04 13:41:21;;;;;;;90.03;85.67;;;7.90;99.90;;;;;;4402102;32;20189;-62
2022/02/04 13:44:12;;;;;;;95.10;90.87;;;7.80;99.90;;;;;;4399582;32;20155;-62
2022/02/04 13:46:46;;;;;;;108.10;103.10;;;7.80;99.90;;;;;;4401933;32;20467;-62
2022/02/04 13:49:42;;;;;;;105.43;100.23;;;7.80;99.90;;;;;;4403798;32;20142;-61
2022/02/04 13:52:15;;;;;;;93.40;89.40;;;7.80;99.90;;;;;;4398999;32;20441;-61
2022/02/04 13:54:57;;;;;;;97.73;93.53;;;7.40;99.90;;;;;;4402735;32;20164;-61
2022/02/04 13:57:37;;;;;;;126.03;120.77;;;6.90;99.90;;;;;;4405724;32;20231;-62
2022/02/04 14:00:16;;;;;;;119.50;114.47;;;6.70;99.90;;;;;;4402859;32;20242;-61
2022/02/04 14:02:47;;;;;;;106.10;101.63;;;6.50;99.90;;;;;;4404800;32;20548;-61
2022/02/04 14:05:25;;;;;;;114.67;109.80;;;6.40;99.90;;;;;;4404838;32;20148;-62
2022/02/04 14:08:07;;;;;;;106.57;102.07;;;6.30;99.90;;;;;;4402612;32;20166;-62
2022/02/04 14:10:41;;;;;;;139.43;133.73;;;6.00;99.90;;;;;;4402876;32;20155;-61
2022/02/04 14:13:10;;;;;;;141.10;135.40;;;6.00;99.90;;;;;;4404831;32;20166;-61
2022/02/04 14:15:38;;;;;;;138.33;132.17;;;5.80;99.90;;;;;;4404811;32;20242;-61
2022/02/04 14:18:08;;;;;;;134.07;128.70;;;5.70;99.90;;;;;;4404968;32;20167;-61
2022/02/04 14:20:37;;;;;;;148.40;142.30;;;5.40;99.90;;;;;;4400358;32;20197;-62
2022/02/04 14:23:08;;;;;;;163.77;157.17;;;5.30;99.90;;;;;;4399447;32;20536;-62
2022/02/04 14:25:50;;;;;;;174.03;166.77;;;5.20;99.90;;;;;;4404639;32;20160;-61
2022/02/04 14:28:22;;;;;;;180.57;173.47;;;5.20;99.90;;;;;;4405984;32;20209;-63
2022/02/04 14:30:57;;;;;;;172.33;165.43;;;5.00;99.90;;;;;;4399098;32;20155;-63
2022/02/04 14:34:08;;;;;;;180.63;173.60;;;5.00;99.90;;;;;;4406218;32;20150;-62
2022/02/04 14:36:23;;;;;;;174.10;167.23;;;4.90;99.90;;;;;;4409348;32;20166;-62
2022/02/04 14:52:41;;;;;;;170.73;163.87;;;5.00;99.90;;;;;;4361184;32;20176;-62
2022/02/04 15:00:45;;;;;;;189.13;181.77;;;4.80;99.90;;;;;;4363499;32;20183;-62
2022/02/04 15:06:11;;;;;;;203.77;195.63;;;4.90;99.90;;;;;;4326468;32;20277;-62
2022/02/04 15:08:38;;;;;;;202.13;193.93;;;4.90;99.90;;;;;;4357729;32;20273;-62
2022/02/04 15:11:24;;;;;;;185.10;177.47;;;4.90;99.90;;;;;;4359797;32;20184;-63
2022/02/04 15:13:59;;;;;;;178.93;171.73;;;4.90;99.90;;;;;;4355324;32;20231;-63
2022/02/04 15:16:26;;;;;;;192.73;185.10;;;4.90;99.90;;;;;;4359954;32;20210;-62
2022/02/04 15:18:53;;;;;;;189.03;181.30;;;4.90;99.90;;;;;;4369546;32;20686;-62
2022/02/04 15:21:21;;;;;;;199.90;191.73;;;4.90;99.90;;;;;;4372011;32;20226;-63
2022/02/04 15:23:52;;;;;;;188.43;180.77;;;5.00;99.90;;;;;;4377061;32;20174;-62
2022/02/04 15:26:21;;;;;;;184.40;176.93;;;5.00;99.90;;;;;;4375756;32;20172;-63
2022/02/04 15:28:54;;;;;;;194.43;186.70;;;5.00;99.90;;;;;;4387581;32;20183;-62
2022/02/04 15:31:31;;;;;;;189.50;181.73;;;5.00;99.90;;;;;;4400470;32;20152;-63
2022/02/04 15:33:58;;;;;;;184.23;176.90;;;5.10;99.90;;;;;;4392910;32;20182;-63
2022/02/04 15:36:28;;;;;;;180.57;172.93;;;5.00;99.90;;;;;;4393791;32;20150;-63
2022/02/04 15:38:56;;;;;;;200.30;192.23;;;4.90;99.90;;;;;;4393241;32;20158;-63
2022/02/04 15:41:26;;;;;;;188.97;181.33;;;4.90;99.90;;;;;;4396615;32;20148;-63
2022/02/04 15:43:57;;;;;;;196.23;188.40;;;4.80;99.90;;;;;;4408271;32;20634;-62
2022/02/04 15:49:16;;;;;;;202.90;194.87;;;4.70;99.90;;;;;;4407841;32;20501;-63
2022/02/04 15:52:11;;;;;;;195.43;187.60;;;4.70;99.90;;;;;;4404668;32;20143;-63
2022/02/04 15:54:48;;;;;;;199.33;191.17;;;4.60;99.90;;;;;;4407878;32;20195;-63
2022/02/04 15:57:34;;;;;;;208.87;200.33;;;4.70;99.90;;;;;;4407822;32;20471;-63
2022/02/04 16:03:12;;;;;;;200.53;192.53;;;4.60;99.90;;;;;;4360191;32;20650;-63
2022/02/04 16:05:44;;;;;;;207.13;198.30;;;4.60;99.90;;;;;;4361465;32;20638;-63
2022/02/04 16:08:14;;;;;;;198.70;190.53;;;4.50;99.90;;;;;;4369998;32;20570;-63
2022/02/04 16:10:52;;;;;;;212.63;204.07;;;4.50;99.90;;;;;;4373358;32;20225;-63
2022/02/04 16:16:21;;;;;;;213.70;205.27;;;4.50;99.90;;;;;;4315039;33;20185;-63
2022/02/04 16:19:00;;;;;;;175.63;168.13;;;4.50;99.90;;;;;;4314451;33;20188;-62
2022/02/04 16:21:34;;;;;;;204.87;196.67;;;4.40;99.90;;;;;;4332228;33;20180;-62
2022/02/04 16:24:17;;;;;;;224.40;213.60;;;4.40;99.90;;;;;;4338319;33;20489;-62
2022/02/04 16:26:52;;;;;;;224.37;215.37;;;4.40;99.90;;;;;;4340958;33;20154;-62
2022/02/04 16:29:20;;;;;;;216.93;207.27;;;4.50;99.90;;;;;;4338387;33;21366;-61
2022/02/04 16:31:47;;;;;;;213.33;204.23;;;4.40;99.90;;;;;;4339591;32;20197;-62
2022/02/04 16:34:18;;;;;;;254.80;244.37;;;4.40;99.90;;;;;;4337508;33;20654;-62
2022/02/04 16:36:48;;;;;;;226.27;217.10;;;4.40;99.90;;;;;;4332917;33;20192;-62
2022/02/04 16:39:18;;;;;;;233.63;224.23;;;4.30;99.90;;;;;;4340331;33;20161;-61
2022/02/04 16:41:51;;;;;;;224.73;215.63;;;4.30;99.90;;;;;;4347186;32;20606;-62
2022/02/04 16:44:18;;;;;;;224.03;215.17;;;4.30;99.90;;;;;;4348243;32;20189;-62
2022/02/04 16:46:47;;;;;;;244.47;234.80;;;4.20;99.90;;;;;;4347545;32;20212;-62
2022/02/04 16:49:16;;;;;;;227.73;218.30;;;4.30;99.90;;;;;;4367206;32;20172;-62
2022/02/04 16:51:45;;;;;;;227.30;218.07;;;4.30;99.90;;;;;;4349460;33;20161;-63
2022/02/04 16:54:12;;;;;;;230.13;220.37;;;4.30;99.90;;;;;;4399627;32;20156;-62
2022/02/04 16:56:41;;;;;;;253.87;243.53;;;4.30;99.90;;;;;;4411301;32;20586;-62
2022/02/04 16:59:07;;;;;;;235.47;225.80;;;4.30;99.90;;;;;;4410899;32;20179;-63